Time;durP1;ratioP1;P1;durP2;ratioP2;P2;SDS_P1;SDS_P2;PMS_P1;PMS_P2;Temp;Humidity;BMP_temperature;BMP_pressure;BME280_temperature;BME280_humidity;BME280_pressure;Samples;Min_cycle;Max_cycle;Signal;HPM_P1;HPM_P2
2023/12/06 00:00:10;;;;;;;33.30;19.80;;;2.50;99.90;;;;;;5093723;28;20640;-76
2023/12/06 00:02:36;;;;;;;31.47;19.00;;;2.50;99.90;;;;;;5092365;28;20201;-75
2023/12/06 00:05:01;;;;;;;34.00;19.63;;;2.50;99.90;;;;;;5092734;28;20668;-76
2023/12/06 00:07:27;;;;;;;30.77;19.27;;;2.50;99.90;;;;;;5091571;28;20557;-76
2023/12/06 00:09:52;;;;;;;30.43;19.30;;;2.50;99.90;;;;;;5099201;28;20208;-76
2023/12/06 00:12:18;;;;;;;33.03;19.00;;;2.50;99.90;;;;;;5113815;28;20527;-76
2023/12/06 00:14:43;;;;;;;34.27;18.83;;;2.50;99.90;;;;;;5110938;28;20181;-76
2023/12/06 00:17:09;;;;;;;33.43;20.20;;;2.40;99.90;;;;;;5093263;28;20558;-76
2023/12/06 00:19:35;;;;;;;34.83;20.83;;;2.50;99.90;;;;;;5093850;28;20170;-76
2023/12/06 00:22:00;;;;;;;29.57;18.87;;;2.40;99.90;;;;;;5092909;28;20175;-75
2023/12/06 00:24:26;;;;;;;29.77;18.87;;;2.40;99.90;;;;;;5091019;28;20192;-76
2023/12/06 00:26:51;;;;;;;34.90;20.20;;;2.40;99.90;;;;;;5092177;28;20186;-76
2023/12/06 00:29:17;;;;;;;39.93;21.43;;;2.40;99.90;;;;;;5090360;28;20662;-76
2023/12/06 00:31:43;;;;;;;42.17;22.37;;;2.40;99.90;;;;;;5089684;28;20256;-76
2023/12/06 00:34:08;;;;;;;42.97;21.70;;;2.30;99.90;;;;;;5093216;28;20185;-76
2023/12/06 00:36:34;;;;;;;43.43;23.23;;;2.30;99.90;;;;;;5092716;28;20190;-75
2023/12/06 00:39:00;;;;;;;44.37;23.20;;;2.30;99.90;;;;;;5092758;28;20171;-75
2023/12/06 00:41:25;;;;;;;50.50;25.33;;;2.30;99.90;;;;;;5105625;28;20182;-76
2023/12/06 00:43:52;;;;;;;46.70;25.47;;;2.40;99.90;;;;;;5091552;28;20170;-76
2023/12/06 00:46:17;;;;;;;52.37;26.77;;;2.40;99.90;;;;;;5091298;28;20198;-76
2023/12/06 00:48:43;;;;;;;50.30;26.03;;;2.30;99.90;;;;;;5092785;28;20580;-76
2023/12/06 00:51:09;;;;;;;66.00;27.53;;;2.40;99.90;;;;;;5104301;28;20236;-76
2023/12/06 00:53:34;;;;;;;63.37;29.53;;;2.40;99.90;;;;;;5091099;28;20180;-75
2023/12/06 00:56:00;;;;;;;62.77;30.83;;;2.40;99.90;;;;;;5080623;28;20236;-76
2023/12/06 00:58:26;;;;;;;69.73;31.97;;;2.40;99.90;;;;;;5086484;28;20200;-76
2023/12/06 01:00:51;;;;;;;61.93;30.60;;;2.30;99.90;;;;;;5092835;28;20174;-75
2023/12/06 01:03:17;;;;;;;68.03;31.93;;;2.40;99.90;;;;;;5090483;28;20269;-76
2023/12/06 01:05:42;;;;;;;67.03;32.80;;;2.40;99.90;;;;;;5098834;28;20695;-76
2023/12/06 01:08:08;;;;;;;58.37;29.93;;;2.40;99.90;;;;;;5112940;28;20209;-76
2023/12/06 01:10:34;;;;;;;63.67;29.93;;;2.40;99.90;;;;;;5112767;28;20311;-75
2023/12/06 01:13:00;;;;;;;67.93;31.27;;;2.30;99.90;;;;;;5097834;28;20220;-75
2023/12/06 01:15:25;;;;;;;66.90;31.37;;;2.30;99.90;;;;;;5092195;28;20182;-75
2023/12/06 01:17:51;;;;;;;68.20;32.53;;;2.30;99.90;;;;;;5090938;28;20166;-75
2023/12/06 01:20:16;;;;;;;70.33;33.27;;;2.30;99.90;;;;;;5092706;28;20178;-75
2023/12/06 01:22:42;;;;;;;71.27;34.90;;;2.30;99.90;;;;;;5090657;28;20277;-75
2023/12/06 01:25:08;;;;;;;68.47;34.20;;;2.30;99.90;;;;;;5090943;28;20198;-76
2023/12/06 01:27:35;;;;;;;69.80;32.90;;;2.30;99.90;;;;;;5092509;28;20166;-75
2023/12/06 01:30:02;;;;;;;74.87;35.87;;;2.30;99.90;;;;;;5091468;28;20202;-75
2023/12/06 01:32:28;;;;;;;71.80;35.57;;;2.30;99.90;;;;;;5091521;28;20687;-75
2023/12/06 01:34:54;;;;;;;71.07;35.67;;;2.30;99.90;;;;;;5092440;28;20233;-76
2023/12/06 01:37:19;;;;;;;71.17;35.77;;;2.30;99.90;;;;;;5092117;28;20733;-75
2023/12/06 01:39:45;;;;;;;75.07;37.27;;;2.20;99.90;;;;;;5092125;28;20231;-76
2023/12/06 01:42:12;;;;;;;78.67;37.33;;;2.30;99.90;;;;;;5091828;28;20208;-76
2023/12/06 01:44:37;;;;;;;70.63;35.83;;;2.30;99.90;;;;;;5090711;28;20186;-76
2023/12/06 01:47:04;;;;;;;76.67;35.27;;;2.30;99.90;;;;;;5092111;28;20170;-76
2023/12/06 01:49:31;;;;;;;75.63;35.37;;;2.20;99.90;;;;;;5092627;28;20232;-75
2023/12/06 01:51:57;;;;;;;72.97;36.23;;;2.30;99.90;;;;;;5094040;28;20232;-75
2023/12/06 01:54:23;;;;;;;71.33;33.97;;;2.30;99.90;;;;;;5096173;28;20166;-76
2023/12/06 01:56:48;;;;;;;77.83;36.33;;;2.30;99.90;;;;;;5095948;28;20182;-76
2023/12/06 01:59:14;;;;;;;76.63;37.30;;;2.30;99.90;;;;;;5094794;28;20249;-75
2023/12/06 02:01:40;;;;;;;67.00;35.00;;;2.20;99.90;;;;;;5095249;28;20265;-75
2023/12/06 02:04:06;;;;;;;70.73;36.73;;;2.30;99.90;;;;;;5095921;28;20227;-75
2023/12/06 02:06:32;;;;;;;67.47;34.37;;;2.20;99.90;;;;;;5095728;28;20202;-75
2023/12/06 02:08:59;;;;;;;68.63;35.57;;;2.20;99.90;;;;;;5095627;28;20209;-75
2023/12/06 02:11:24;;;;;;;76.80;35.70;;;2.20;99.90;;;;;;5094745;28;20166;-76
2023/12/06 02:13:50;;;;;;;73.80;36.20;;;2.20;99.90;;;;;;5095732;28;20170;-76
2023/12/06 02:16:16;;;;;;;78.93;37.33;;;2.20;99.90;;;;;;5094218;28;20198;-75
2023/12/06 02:18:42;;;;;;;77.20;36.73;;;2.20;99.90;;;;;;5094311;28;20207;-75
2023/12/06 02:21:08;;;;;;;83.27;39.73;;;2.20;99.90;;;;;;5095590;28;20177;-75
2023/12/06 02:23:37;;;;;;;80.20;39.13;;;2.20;99.90;;;;;;5093374;28;20262;-76
2023/12/06 02:26:03;;;;;;;78.97;41.30;;;2.10;99.90;;;;;;5095438;28;20197;-75
2023/12/06 02:28:29;;;;;;;79.83;41.23;;;2.20;99.90;;;;;;5094193;28;20174;-75
2023/12/06 02:30:54;;;;;;;78.57;38.37;;;2.20;99.90;;;;;;5095209;28;20632;-75
2023/12/06 02:33:22;;;;;;;81.10;39.87;;;2.20;99.90;;;;;;5094441;28;20273;-75
2023/12/06 02:35:53;;;;;;;83.20;42.13;;;2.20;99.90;;;;;;5093839;28;20205;-75
2023/12/06 02:38:20;;;;;;;97.63;44.33;;;2.20;99.90;;;;;;5094112;28;20261;-75
2023/12/06 02:40:47;;;;;;;98.63;43.47;;;2.20;99.90;;;;;;5095265;28;20658;-76
2023/12/06 02:43:14;;;;;;;90.57;43.13;;;2.20;99.90;;;;;;5093031;28;20231;-76
2023/12/06 02:45:40;;;;;;;81.67;42.60;;;2.20;99.90;;;;;;5092750;28;20297;-75
2023/12/06 02:48:07;;;;;;;83.33;41.17;;;2.10;99.90;;;;;;5093542;28;20178;-75
2023/12/06 02:50:32;;;;;;;82.50;41.67;;;2.10;99.90;;;;;;5094710;28;20242;-76
2023/12/06 02:52:58;;;;;;;81.13;41.47;;;2.10;99.90;;;;;;5094684;28;20253;-75
2023/12/06 02:55:23;;;;;;;79.37;39.67;;;2.10;99.90;;;;;;5094076;28;20198;-75
2023/12/06 02:57:49;;;;;;;76.70;40.90;;;2.10;99.90;;;;;;5094674;28;20642;-75
2023/12/06 03:00:15;;;;;;;80.03;41.30;;;2.10;99.90;;;;;;5101617;28;20229;-75
2023/12/06 03:02:40;;;;;;;73.00;37.37;;;2.10;99.90;;;;;;5092977;28;20184;-76
2023/12/06 03:05:06;;;;;;;68.60;38.03;;;2.00;99.90;;;;;;5093814;28;20202;-75
2023/12/06 03:07:31;;;;;;;65.83;38.03;;;2.00;99.90;;;;;;5094394;28;20269;-75
2023/12/06 03:09:57;;;;;;;64.83;37.40;;;2.00;99.90;;;;;;5105021;28;20225;-76
2023/12/06 03:12:22;;;;;;;65.63;36.97;;;2.00;99.90;;;;;;5114953;28;20181;-76
2023/12/06 03:14:48;;;;;;;65.00;37.27;;;1.90;99.90;;;;;;5112781;28;20233;-75
2023/12/06 03:17:14;;;;;;;60.87;38.07;;;2.00;99.90;;;;;;5093062;28;20243;-76
2023/12/06 03:19:39;;;;;;;59.10;38.10;;;1.90;99.90;;;;;;5094233;28;20182;-75
2023/12/06 03:22:06;;;;;;;61.23;35.43;;;1.90;99.90;;;;;;5094851;28;20162;-76
2023/12/06 03:24:32;;;;;;;56.50;35.43;;;1.90;99.90;;;;;;5094127;28;20536;-76
2023/12/06 03:26:57;;;;;;;60.67;35.40;;;1.90;99.90;;;;;;5092310;28;20192;-76
2023/12/06 03:29:23;;;;;;;53.87;33.40;;;1.90;99.90;;;;;;5094381;28;20186;-75
2023/12/06 03:31:48;;;;;;;55.07;34.07;;;1.90;99.90;;;;;;5092495;28;20190;-76
2023/12/06 03:34:13;;;;;;;49.73;33.53;;;1.90;99.90;;;;;;5092392;28;20184;-75
2023/12/06 03:36:39;;;;;;;55.30;34.30;;;1.90;99.90;;;;;;5093059;28;20224;-75
2023/12/06 03:39:04;;;;;;;54.43;34.17;;;1.90;99.90;;;;;;5094217;28;20670;-75
2023/12/06 03:41:30;;;;;;;56.10;34.70;;;1.90;99.90;;;;;;5114655;28;20173;-76
2023/12/06 03:43:55;;;;;;;52.93;34.37;;;1.90;99.90;;;;;;5112919;28;20297;-76
2023/12/06 03:46:21;;;;;;;56.43;34.93;;;1.90;99.90;;;;;;5099441;28;20198;-76
2023/12/06 03:48:46;;;;;;;49.20;32.37;;;2.00;99.90;;;;;;5092334;28;20177;-75
2023/12/06 03:51:12;;;;;;;52.67;34.60;;;1.90;99.90;;;;;;5093472;28;20178;-75
2023/12/06 03:53:38;;;;;;;50.77;32.03;;;1.90;99.90;;;;;;5092553;28;20205;-76
2023/12/06 03:56:04;;;;;;;51.90;33.83;;;2.00;99.90;;;;;;5092817;28;20230;-76
2023/12/06 03:58:30;;;;;;;51.40;33.70;;;2.00;99.90;;;;;;5091974;28;20228;-75
2023/12/06 04:00:56;;;;;;;47.47;32.23;;;2.00;99.90;;;;;;5092454;28;20170;-76
2023/12/06 04:03:21;;;;;;;50.10;32.87;;;2.00;99.90;;;;;;5093511;28;20190;-76
2023/12/06 04:05:47;;;;;;;45.97;31.37;;;2.00;99.90;;;;;;5092845;28;20208;-76
2023/12/06 04:08:13;;;;;;;51.93;33.97;;;2.00;99.90;;;;;;5093740;28;20174;-76
2023/12/06 04:10:39;;;;;;;52.57;33.33;;;2.00;99.90;;;;;;5093197;28;20571;-76
2023/12/06 04:13:05;;;;;;;51.97;33.67;;;2.00;99.90;;;;;;5092972;28;20262;-76
2023/12/06 04:15:31;;;;;;;49.90;33.60;;;2.00;99.90;;;;;;5091230;28;20202;-76
2023/12/06 04:17:56;;;;;;;47.77;31.70;;;2.00;99.90;;;;;;5091813;28;20646;-76
2023/12/06 04:20:23;;;;;;;50.60;32.57;;;2.10;99.90;;;;;;5108793;28;20181;-76
2023/12/06 04:22:49;;;;;;;48.20;32.07;;;2.00;99.90;;;;;;5113201;28;20188;-76
2023/12/06 04:25:15;;;;;;;50.20;33.67;;;2.00;99.90;;;;;;5108965;28;20559;-76
2023/12/06 04:27:40;;;;;;;47.03;31.17;;;2.10;99.90;;;;;;5092576;28;20178;-76
2023/12/06 04:30:06;;;;;;;48.73;33.33;;;2.10;99.90;;;;;;5101202;28;20185;-75
2023/12/06 04:32:32;;;;;;;52.27;34.50;;;2.10;99.90;;;;;;5095812;28;20191;-76
2023/12/06 04:34:58;;;;;;;49.50;32.30;;;2.10;99.90;;;;;;5090108;28;20189;-77
2023/12/06 04:37:24;;;;;;;48.37;32.00;;;2.10;99.90;;;;;;5092332;28;20517;-76
2023/12/06 04:39:49;;;;;;;50.47;32.90;;;2.10;99.90;;;;;;5091235;28;20265;-76
2023/12/06 04:42:15;;;;;;;52.03;32.90;;;2.10;99.90;;;;;;5092742;28;20171;-76
2023/12/06 04:44:41;;;;;;;47.50;31.73;;;2.10;99.90;;;;;;5092590;28;20170;-76
2023/12/06 04:47:07;;;;;;;49.20;31.90;;;2.10;99.90;;;;;;5092057;28;20562;-76
2023/12/06 04:49:33;;;;;;;49.77;32.33;;;2.10;99.90;;;;;;5100459;28;20293;-76
2023/12/06 04:51:59;;;;;;;49.60;32.63;;;2.20;99.90;;;;;;5091237;28;20170;-77
2023/12/06 04:54:25;;;;;;;51.90;32.50;;;2.10;99.90;;;;;;5092508;28;20249;-75
2023/12/06 04:56:51;;;;;;;50.17;33.40;;;2.20;99.90;;;;;;5091760;28;20277;-76
2023/12/06 04:59:17;;;;;;;54.20;32.60;;;2.20;99.90;;;;;;5092499;28;20162;-76
2023/12/06 05:01:43;;;;;;;48.33;31.67;;;2.20;99.90;;;;;;5091026;28;20664;-76
2023/12/06 05:04:09;;;;;;;53.23;32.50;;;2.30;99.90;;;;;;5092708;28;20268;-76
2023/12/06 05:06:34;;;;;;;60.83;33.03;;;2.30;99.90;;;;;;5091461;28;20629;-76
2023/12/06 05:09:00;;;;;;;59.37;34.53;;;2.40;99.90;;;;;;5091051;28;20177;-76
2023/12/06 05:11:26;;;;;;;54.53;32.87;;;2.40;99.90;;;;;;5110753;28;20184;-77
2023/12/06 05:13:51;;;;;;;57.33;32.73;;;2.40;99.90;;;;;;5112533;28;20197;-76
2023/12/06 05:16:17;;;;;;;58.33;34.83;;;2.40;99.90;;;;;;5087929;28;20235;-76
2023/12/06 05:18:42;;;;;;;52.53;31.93;;;2.40;99.90;;;;;;5088654;28;20582;-76
2023/12/06 05:21:08;;;;;;;58.17;32.37;;;2.50;99.90;;;;;;5091124;28;20188;-76
2023/12/06 05:23:33;;;;;;;52.27;31.67;;;2.50;99.90;;;;;;5092491;28;20179;-76
2023/12/06 05:26:00;;;;;;;54.93;32.03;;;2.50;99.90;;;;;;5095693;28;20198;-76
2023/12/06 05:28:25;;;;;;;56.63;33.30;;;2.50;99.90;;;;;;5095529;28;20522;-76
2023/12/06 05:30:51;;;;;;;54.23;33.77;;;2.50;99.90;;;;;;5108140;28;20209;-77
2023/12/06 05:33:16;;;;;;;60.13;33.27;;;2.50;99.90;;;;;;5096331;28;20178;-77
2023/12/06 05:35:42;;;;;;;55.17;33.57;;;2.60;99.90;;;;;;5095940;28;20202;-76
2023/12/06 05:38:07;;;;;;;52.47;32.67;;;2.60;99.90;;;;;;5097275;28;20177;-77
2023/12/06 05:40:33;;;;;;;52.60;31.87;;;2.60;99.90;;;;;;5096674;28;20294;-77
2023/12/06 05:42:58;;;;;;;57.20;33.67;;;2.60;99.90;;;;;;5096536;28;20654;-77
2023/12/06 05:45:24;;;;;;;52.43;30.90;;;2.60;99.90;;;;;;5095160;28;20198;-77
2023/12/06 05:47:50;;;;;;;54.43;32.40;;;2.70;99.90;;;;;;5111013;28;20268;-76
2023/12/06 05:50:15;;;;;;;53.03;31.73;;;2.70;99.90;;;;;;5108182;28;20201;-76
2023/12/06 05:52:41;;;;;;;48.70;30.13;;;2.70;99.90;;;;;;5096148;28;20547;-76
2023/12/06 05:55:06;;;;;;;49.90;31.20;;;2.80;99.90;;;;;;5095338;28;20620;-76
2023/12/06 05:57:32;;;;;;;51.83;31.47;;;2.70;99.90;;;;;;5096264;28;20713;-76
2023/12/06 05:59:59;;;;;;;46.77;31.20;;;2.80;99.90;;;;;;5096834;28;20166;-76
2023/12/06 06:02:24;;;;;;;53.50;32.70;;;2.80;99.90;;;;;;5096666;28;20227;-76
2023/12/06 06:04:50;;;;;;;47.53;30.27;;;2.80;99.90;;;;;;5093914;28;20206;-76
2023/12/06 06:07:16;;;;;;;49.33;31.23;;;2.80;99.90;;;;;;5094604;28;20254;-76
2023/12/06 06:09:42;;;;;;;52.70;33.27;;;2.80;99.90;;;;;;5093805;28;20209;-76
2023/12/06 06:12:07;;;;;;;50.30;32.07;;;2.80;99.90;;;;;;5094448;28;20174;-76
2023/12/06 06:14:33;;;;;;;48.70;31.53;;;2.90;99.90;;;;;;5094485;28;20202;-76
2023/12/06 06:16:59;;;;;;;49.63;32.30;;;2.90;99.90;;;;;;5095674;28;20174;-76
2023/12/06 06:19:25;;;;;;;51.27;32.13;;;2.80;99.90;;;;;;5095205;28;20266;-75
2023/12/06 06:21:50;;;;;;;52.07;32.53;;;2.80;99.90;;;;;;5095621;28;20512;-76
2023/12/06 06:24:16;;;;;;;50.83;32.57;;;2.80;99.90;;;;;;5095452;28;20175;-76
2023/12/06 06:26:41;;;;;;;52.40;33.60;;;2.80;99.90;;;;;;5095466;28;20190;-75
2023/12/06 06:29:08;;;;;;;48.27;31.00;;;2.80;99.90;;;;;;5094911;28;20670;-75
2023/12/06 06:31:34;;;;;;;51.57;33.47;;;2.80;99.90;;;;;;5094859;28;20182;-75
2023/12/06 06:34:02;;;;;;;51.57;32.87;;;2.90;99.90;;;;;;5094190;28;20212;-76
2023/12/06 06:36:28;;;;;;;49.20;30.80;;;2.90;99.90;;;;;;5094830;28;20186;-76
2023/12/06 06:38:55;;;;;;;52.50;33.00;;;2.90;99.90;;;;;;5093598;28;20542;-77
2023/12/06 06:41:21;;;;;;;52.33;32.37;;;2.90;99.90;;;;;;5090551;28;20182;-77
2023/12/06 06:43:47;;;;;;;50.83;31.97;;;2.90;99.90;;;;;;5092799;28;20562;-76
2023/12/06 06:46:12;;;;;;;48.17;31.63;;;2.90;99.90;;;;;;5093079;28;20198;-75
2023/12/06 06:48:38;;;;;;;51.33;32.10;;;3.00;99.90;;;;;;5093346;28;20178;-75
2023/12/06 06:51:04;;;;;;;51.30;33.43;;;3.00;99.90;;;;;;5093740;28;20589;-76
2023/12/06 06:53:29;;;;;;;48.60;32.30;;;2.90;99.90;;;;;;5095089;28;20181;-76
2023/12/06 06:55:55;;;;;;;49.50;32.77;;;3.00;99.90;;;;;;5093325;28;20198;-76
2023/12/06 06:58:20;;;;;;;52.67;32.67;;;3.00;99.90;;;;;;5094122;28;20204;-75
2023/12/06 07:00:46;;;;;;;46.90;32.40;;;3.00;99.90;;;;;;5095006;28;20634;-76
2023/12/06 07:03:11;;;;;;;52.70;34.00;;;3.00;99.90;;;;;;5094263;28;20210;-76
2023/12/06 07:05:37;;;;;;;50.63;33.57;;;3.00;99.90;;;;;;5094096;28;20229;-76
2023/12/06 07:08:03;;;;;;;50.83;33.07;;;3.00;99.90;;;;;;5095027;28;20656;-76
2023/12/06 07:10:29;;;;;;;47.50;33.13;;;3.10;99.90;;;;;;5093620;28;20197;-75
2023/12/06 07:12:54;;;;;;;48.07;34.07;;;3.10;99.90;;;;;;5094620;28;20704;-76
2023/12/06 07:15:20;;;;;;;44.00;31.57;;;3.10;99.90;;;;;;5094651;28;20210;-75
2023/12/06 07:17:46;;;;;;;50.37;33.17;;;3.10;99.90;;;;;;5094474;28;20166;-76
2023/12/06 07:20:17;;;;;;;48.87;33.03;;;3.10;99.90;;;;;;5093939;28;20188;-77
2023/12/06 07:22:42;;;;;;;45.00;32.10;;;3.20;99.90;;;;;;5094646;28;20150;-76
2023/12/06 07:25:08;;;;;;;47.83;33.57;;;3.20;99.90;;;;;;5093079;28;20281;-76
2023/12/06 07:27:34;;;;;;;44.23;30.97;;;3.20;99.90;;;;;;5094371;28;20166;-76
2023/12/06 07:29:59;;;;;;;43.43;30.70;;;3.20;99.90;;;;;;5092026;28;20217;-76
2023/12/06 07:32:25;;;;;;;45.43;30.73;;;3.20;99.90;;;;;;5091467;28;20182;-76
2023/12/06 07:34:50;;;;;;;43.97;31.53;;;3.30;99.90;;;;;;5092944;28;20195;-75
2023/12/06 07:37:16;;;;;;;40.43;30.87;;;3.20;99.90;;;;;;5094178;28;20166;-76
2023/12/06 07:39:41;;;;;;;41.70;30.43;;;3.30;99.90;;;;;;5093263;28;20181;-75
2023/12/06 07:42:07;;;;;;;39.97;28.47;;;3.30;99.90;;;;;;5094215;28;20178;-76
2023/12/06 07:44:33;;;;;;;35.17;27.37;;;3.30;99.90;;;;;;5093940;28;20222;-76
2023/12/06 07:46:58;;;;;;;36.93;28.97;;;3.30;99.90;;;;;;5093133;28;20171;-75
2023/12/06 07:49:24;;;;;;;38.07;28.17;;;3.30;99.90;;;;;;5093096;28;20255;-76
2023/12/06 07:51:49;;;;;;;39.63;27.73;;;3.30;99.90;;;;;;5093150;28;20499;-76
2023/12/06 07:54:16;;;;;;;34.27;26.63;;;3.50;99.90;;;;;;5092345;28;20170;-75
2023/12/06 07:56:42;;;;;;;36.70;26.60;;;3.30;99.90;;;;;;5093621;28;20615;-76
2023/12/06 07:59:08;;;;;;;35.77;27.23;;;3.40;99.90;;;;;;5091424;28;20166;-76
2023/12/06 08:01:33;;;;;;;36.53;28.20;;;3.40;99.90;;;;;;5093444;28;20181;-76
2023/12/06 08:03:59;;;;;;;35.27;26.67;;;3.40;99.90;;;;;;5093750;28;20596;-75
2023/12/06 08:06:26;;;;;;;36.40;26.07;;;3.40;99.90;;;;;;5093405;28;20265;-75
2023/12/06 08:08:53;;;;;;;36.77;25.93;;;3.40;99.90;;;;;;5092361;28;20522;-75
2023/12/06 08:11:19;;;;;;;34.47;25.37;;;3.40;99.90;;;;;;5092547;28;20198;-75
2023/12/06 08:13:45;;;;;;;31.67;25.77;;;3.40;99.90;;;;;;5092226;28;20206;-75
2023/12/06 08:16:11;;;;;;;34.13;25.33;;;3.40;99.90;;;;;;5093201;28;20201;-76
2023/12/06 08:18:36;;;;;;;32.07;25.80;;;3.50;99.90;;;;;;5093175;28;20170;-76
2023/12/06 08:21:04;;;;;;;35.43;26.23;;;3.50;99.90;;;;;;5091949;28;20185;-76
2023/12/06 08:23:29;;;;;;;33.03;25.03;;;3.50;99.90;;;;;;5091841;28;20600;-76
2023/12/06 08:25:55;;;;;;;31.60;24.07;;;3.50;99.90;;;;;;5091750;28;20239;-76
2023/12/06 08:28:20;;;;;;;32.47;25.53;;;3.50;99.90;;;;;;5093024;28;20182;-76
2023/12/06 08:30:46;;;;;;;33.23;24.60;;;3.50;99.90;;;;;;5091000;28;20225;-76
2023/12/06 08:33:13;;;;;;;30.37;24.30;;;3.50;99.90;;;;;;5091640;28;20162;-76
2023/12/06 08:35:39;;;;;;;31.80;23.83;;;3.50;99.90;;;;;;5093147;28;20205;-76
2023/12/06 08:38:05;;;;;;;30.07;24.63;;;3.50;99.90;;;;;;5091631;28;20170;-76
2023/12/06 08:40:31;;;;;;;30.47;23.20;;;3.50;99.90;;;;;;5090842;28;20221;-76
2023/12/06 08:42:57;;;;;;;30.77;24.23;;;3.50;99.90;;;;;;5091571;28;20173;-76
2023/12/06 08:45:22;;;;;;;30.20;24.60;;;3.60;99.90;;;;;;5091555;28;20575;-76
2023/12/06 08:47:48;;;;;;;29.67;25.23;;;3.60;99.90;;;;;;5092808;28;20166;-75
2023/12/06 08:50:14;;;;;;;31.93;24.70;;;3.60;99.90;;;;;;5091514;28;20194;-75
2023/12/06 08:52:42;;;;;;;34.43;25.40;;;3.60;99.90;;;;;;5091724;28;20175;-75
2023/12/06 08:55:07;;;;;;;31.97;24.93;;;3.60;99.90;;;;;;5092783;28;20178;-76
2023/12/06 08:57:33;;;;;;;31.50;25.03;;;3.60;99.90;;;;;;5092699;28;20178;-75
2023/12/06 08:59:59;;;;;;;36.13;25.93;;;3.70;99.90;;;;;;5091137;28;20209;-77
2023/12/06 09:02:24;;;;;;;32.13;25.03;;;3.60;99.90;;;;;;5090989;28;20174;-76
2023/12/06 09:04:51;;;;;;;32.73;25.80;;;3.60;99.90;;;;;;5092849;28;20193;-76
2023/12/06 09:07:17;;;;;;;35.13;25.47;;;3.60;99.90;;;;;;5092865;28;20166;-75
2023/12/06 09:09:45;;;;;;;36.00;26.73;;;3.70;99.90;;;;;;5092589;28;20190;-76
2023/12/06 09:12:11;;;;;;;34.43;25.33;;;3.70;99.90;;;;;;5090929;28;20186;-75
2023/12/06 09:14:36;;;;;;;37.03;26.50;;;3.70;99.90;;;;;;5092442;28;20583;-75
2023/12/06 09:17:02;;;;;;;36.47;27.60;;;3.70;99.90;;;;;;5092430;28;20185;-75
2023/12/06 09:19:29;;;;;;;31.30;26.00;;;3.70;99.90;;;;;;5091061;28;20247;-75
2023/12/06 09:21:54;;;;;;;35.20;26.57;;;3.80;99.90;;;;;;5091724;28;20223;-76
2023/12/06 09:24:20;;;;;;;34.90;27.00;;;3.80;99.90;;;;;;5091025;28;20573;-75
2023/12/06 09:26:45;;;;;;;34.00;27.13;;;3.80;99.90;;;;;;5091034;28;20220;-75
2023/12/06 09:29:11;;;;;;;34.17;25.87;;;3.80;99.90;;;;;;5092375;28;20183;-75
2023/12/06 09:31:37;;;;;;;37.83;28.40;;;3.80;99.90;;;;;;5090148;28;20197;-75
2023/12/06 09:34:04;;;;;;;36.63;27.50;;;3.90;99.90;;;;;;5091010;28;20183;-75
2023/12/06 09:36:30;;;;;;;34.27;27.37;;;3.90;99.90;;;;;;5092163;28;20201;-75
2023/12/06 09:38:56;;;;;;;34.03;27.63;;;4.00;99.90;;;;;;5092301;28;20170;-75
2023/12/06 09:41:28;;;;;;;33.87;26.50;;;4.00;99.90;;;;;;5091425;28;20549;-75
2023/12/06 09:43:55;;;;;;;34.80;26.23;;;4.00;99.90;;;;;;5092474;28;20162;-75
2023/12/06 09:46:20;;;;;;;35.00;27.50;;;4.00;99.90;;;;;;5092201;28;20193;-74
2023/12/06 09:48:47;;;;;;;37.53;26.10;;;4.00;99.90;;;;;;5092110;28;20552;-75
2023/12/06 09:51:12;;;;;;;34.53;25.07;;;4.00;99.90;;;;;;5090073;28;20585;-75
2023/12/06 09:53:38;;;;;;;39.17;26.27;;;4.00;99.90;;;;;;5092127;28;20200;-75
2023/12/06 09:56:05;;;;;;;38.53;26.27;;;4.10;99.90;;;;;;5091952;28;20201;-75
2023/12/06 09:58:31;;;;;;;31.43;25.47;;;4.10;99.90;;;;;;5092059;28;20677;-75
2023/12/06 10:00:57;;;;;;;32.83;25.77;;;4.10;99.90;;;;;;5091243;28;20209;-76
2023/12/06 10:03:23;;;;;;;33.90;24.60;;;4.10;99.90;;;;;;5090617;28;20202;-75
2023/12/06 10:05:56;;;;;;;35.13;25.47;;;4.10;99.90;;;;;;5091179;28;20198;-75
2023/12/06 10:08:22;;;;;;;32.27;24.40;;;4.10;99.90;;;;;;5090566;28;20212;-75
2023/12/06 10:10:48;;;;;;;33.10;25.07;;;4.10;99.90;;;;;;5093397;28;20226;-75
2023/12/06 10:13:14;;;;;;;29.10;24.03;;;4.10;99.90;;;;;;5094680;28;20549;-75
2023/12/06 10:15:39;;;;;;;31.97;23.93;;;4.10;99.90;;;;;;5095027;28;20194;-76
2023/12/06 10:18:05;;;;;;;34.93;24.70;;;4.20;99.90;;;;;;5095636;28;20163;-75
2023/12/06 10:20:31;;;;;;;30.83;23.80;;;4.20;99.90;;;;;;5094282;28;20186;-76
2023/12/06 10:22:56;;;;;;;32.20;23.47;;;4.20;99.90;;;;;;5093635;28;20167;-76
2023/12/06 10:25:22;;;;;;;39.70;24.73;;;4.20;99.90;;;;;;5095304;28;20251;-75
2023/12/06 10:27:48;;;;;;;36.93;25.47;;;4.20;99.90;;;;;;5094137;28;20312;-75
2023/12/06 10:30:22;;;;;;;32.67;25.67;;;4.20;99.90;;;;;;5093787;28;20305;-75
2023/12/06 10:32:50;;;;;;;32.67;24.47;;;4.20;99.90;;;;;;5093560;28;20545;-76
2023/12/06 10:35:18;;;;;;;36.77;26.57;;;4.20;99.90;;;;;;5095224;28;20201;-75
2023/12/06 10:37:47;;;;;;;39.53;24.80;;;4.30;99.90;;;;;;5093960;28;20701;-75
2023/12/06 10:40:14;;;;;;;35.00;25.13;;;4.30;99.90;;;;;;5093902;28;20200;-75
2023/12/06 10:42:45;;;;;;;30.53;22.63;;;4.40;99.90;;;;;;5095229;28;20170;-74
2023/12/06 10:45:11;;;;;;;31.13;22.07;;;4.40;99.90;;;;;;5094769;28;20198;-75
2023/12/06 10:47:40;;;;;;;29.50;21.17;;;4.40;99.90;;;;;;5093653;28;20170;-76
2023/12/06 10:50:07;;;;;;;30.67;22.03;;;4.40;99.90;;;;;;5094875;28;20194;-75
2023/12/06 10:52:35;;;;;;;32.47;21.70;;;4.40;99.90;;;;;;5093556;28;20185;-75
2023/12/06 10:55:03;;;;;;;33.90;21.57;;;4.40;99.90;;;;;;5092774;28;20206;-75
2023/12/06 10:57:30;;;;;;;28.50;20.40;;;4.40;99.90;;;;;;5093449;28;20548;-75
2023/12/06 10:59:57;;;;;;;25.83;19.97;;;4.40;99.90;;;;;;5094830;28;20170;-76
2023/12/06 11:02:23;;;;;;;26.47;19.70;;;4.40;99.90;;;;;;5093334;28;20260;-75
2023/12/06 11:04:53;;;;;;;25.53;20.43;;;4.40;99.90;;;;;;5092811;28;20256;-75
2023/12/06 11:08:00;;;;;;;23.13;18.60;;;4.50;99.90;;;;;;5092656;28;20179;-76
2023/12/06 11:10:37;;;;;;;27.47;17.73;;;4.50;99.90;;;;;;5094762;28;20186;-75
2023/12/06 11:13:37;;;;;;;22.00;17.63;;;4.50;99.90;;;;;;5093847;28;20197;-75
2023/12/06 11:16:26;;;;;;;25.13;18.37;;;4.50;99.90;;;;;;5093231;28;20190;-75
2023/12/06 11:18:52;;;;;;;24.30;17.90;;;4.50;99.90;;;;;;5094501;28;20262;-75
2023/12/06 11:21:19;;;;;;;25.30;17.63;;;4.50;99.90;;;;;;5093073;28;20173;-75
2023/12/06 11:23:48;;;;;;;26.17;17.30;;;4.60;99.90;;;;;;5092703;28;20186;-75
2023/12/06 11:26:14;;;;;;;25.07;17.90;;;4.50;99.90;;;;;;5093062;28;20704;-76
2023/12/06 11:28:41;;;;;;;25.40;17.70;;;4.60;99.90;;;;;;5094324;28;20178;-74
2023/12/06 11:31:10;;;;;;;24.87;18.30;;;4.60;99.90;;;;;;5094044;28;20271;-75
2023/12/06 11:33:36;;;;;;;25.53;18.90;;;4.60;99.90;;;;;;5092793;28;20181;-75
2023/12/06 11:36:02;;;;;;;28.00;18.93;;;4.60;99.90;;;;;;5093327;28;20197;-75
2023/12/06 11:38:34;;;;;;;28.00;19.07;;;4.60;99.90;;;;;;5094021;28;20641;-75
2023/12/06 11:41:01;;;;;;;24.90;18.93;;;4.60;99.90;;;;;;5092598;28;20181;-75
2023/12/06 11:43:34;;;;;;;24.80;17.17;;;4.60;99.90;;;;;;5091650;28;20624;-76
2023/12/06 11:46:07;;;;;;;33.10;19.50;;;4.70;99.90;;;;;;5092200;28;20251;-75
2023/12/06 11:48:36;;;;;;;26.23;17.37;;;4.70;99.90;;;;;;5092434;28;20644;-74
2023/12/06 11:51:01;;;;;;;26.90;18.53;;;4.70;99.90;;;;;;5093683;28;20189;-75
2023/12/06 11:53:30;;;;;;;30.27;18.97;;;4.70;99.90;;;;;;5093701;28;20171;-76
2023/12/06 11:55:56;;;;;;;35.53;18.50;;;4.70;99.90;;;;;;5093742;28;20243;-76
2023/12/06 11:58:27;;;;;;;25.47;17.83;;;4.80;99.90;;;;;;5092877;28;20170;-76
2023/12/06 12:00:53;;;;;;;28.80;18.23;;;4.80;99.90;;;;;;5093813;28;20165;-76
2023/12/06 12:03:19;;;;;;;28.80;19.23;;;4.80;99.90;;;;;;5092166;28;20182;-75
2023/12/06 12:05:46;;;;;;;29.97;18.57;;;4.80;99.90;;;;;;5093454;28;20209;-75
2023/12/06 12:08:12;;;;;;;25.30;18.83;;;4.90;99.90;;;;;;5092163;28;20178;-75
2023/12/06 12:10:38;;;;;;;27.70;18.97;;;4.90;99.90;;;;;;5092641;28;20806;-76
2023/12/06 12:13:04;;;;;;;25.47;17.83;;;4.90;99.90;;;;;;5092010;28;20202;-75
2023/12/06 12:15:32;;;;;;;25.90;17.60;;;5.00;99.90;;;;;;5093298;28;20186;-75
2023/12/06 12:17:58;;;;;;;29.57;17.07;;;5.00;99.90;;;;;;5093240;28;20185;-75
2023/12/06 12:20:23;;;;;;;25.83;18.43;;;5.10;99.90;;;;;;5091180;28;20182;-75
2023/12/06 12:22:51;;;;;;;24.27;18.03;;;5.10;99.90;;;;;;5091880;28;20182;-75
2023/12/06 12:25:17;;;;;;;22.10;16.53;;;5.10;99.90;;;;;;5093005;28;20194;-75
2023/12/06 12:27:45;;;;;;;22.90;16.30;;;5.10;99.90;;;;;;5092841;28;20215;-77
2023/12/06 12:30:12;;;;;;;19.43;15.13;;;5.10;99.90;;;;;;5089721;28;20704;-75